sensor_id;sensor_type;location;lat;lon;timestamp;P1;durP1;ratioP1;P2;durP2;ratioP2
39066;SDS011;24821;51.988;6.020;2023-06-24T00:01:20;5.47;;;5.07;;
39066;SDS011;24821;51.988;6.020;2023-06-24T00:03:47;5.60;;;5.20;;
39066;SDS011;24821;51.988;6.020;2023-06-24T00:06:13;5.40;;;4.80;;
39066;SDS011;24821;51.988;6.020;2023-06-24T00:08:47;5.47;;;5.07;;
39066;SDS011;24821;51.988;6.020;2023-06-24T00:11:13;5.45;;;5.05;;
39066;SDS011;24821;51.988;6.020;2023-06-24T00:13:39;5.40;;;5.10;;
39066;SDS011;24821;51.988;6.020;2023-06-24T00:16:05;4.78;;;4.47;;
39066;SDS011;24821;51.988;6.020;2023-06-24T00:18:32;6.45;;;5.90;;
39066;SDS011;24821;51.988;6.020;2023-06-24T00:20:58;5.70;;;5.20;;
39066;SDS011;24821;51.988;6.020;2023-06-24T00:23:26;6.07;;;5.50;;
39066;SDS011;24821;51.988;6.020;2023-06-24T00:25:53;6.45;;;5.85;;
39066;SDS011;24821;51.988;6.020;2023-06-24T00:28:19;6.40;;;5.05;;
39066;SDS011;24821;51.988;6.020;2023-06-24T00:30:45;5.30;;;5.00;;
39066;SDS011;24821;51.988;6.020;2023-06-24T00:33:12;5.32;;;4.90;;
39066;SDS011;24821;51.988;6.020;2023-06-24T00:35:38;6.45;;;5.65;;
39066;SDS011;24821;51.988;6.020;2023-06-24T00:38:08;5.78;;;5.35;;
39066;SDS011;24821;51.988;6.020;2023-06-24T00:40:34;5.97;;;5.47;;
39066;SDS011;24821;51.988;6.020;2023-06-24T00:43:00;5.78;;;5.38;;
39066;SDS011;24821;51.988;6.020;2023-06-24T00:45:27;5.50;;;5.03;;
39066;SDS011;24821;51.988;6.020;2023-06-24T00:47:55;5.97;;;5.40;;
39066;SDS011;24821;51.988;6.020;2023-06-24T00:50:21;6.68;;;6.07;;
39066;SDS011;24821;51.988;6.020;2023-06-24T00:52:47;5.82;;;5.43;;
39066;SDS011;24821;51.988;6.020;2023-06-24T00:55:14;6.13;;;5.72;;
39066;SDS011;24821;51.988;6.020;2023-06-24T00:57:42;6.40;;;5.95;;
39066;SDS011;24821;51.988;6.020;2023-06-24T01:00:09;5.97;;;5.57;;
39066;SDS011;24821;51.988;6.020;2023-06-24T01:02:39;6.53;;;6.03;;
39066;SDS011;24821;51.988;6.020;2023-06-24T01:05:07;7.97;;;6.40;;
39066;SDS011;24821;51.988;6.020;2023-06-24T01:07:33;6.90;;;6.35;;
39066;SDS011;24821;51.988;6.020;2023-06-24T01:10:02;7.00;;;6.55;;
39066;SDS011;24821;51.988;6.020;2023-06-24T01:12:30;7.80;;;7.20;;
39066;SDS011;24821;51.988;6.020;2023-06-24T01:14:58;6.70;;;6.10;;
39066;SDS011;24821;51.988;6.020;2023-06-24T01:17:27;6.75;;;6.32;;
39066;SDS011;24821;51.988;6.020;2023-06-24T01:20:41;6.75;;;6.32;;
39066;SDS011;24821;51.988;6.020;2023-06-24T01:25:59;7.38;;;6.78;;
39066;SDS011;24821;51.988;6.020;2023-06-24T01:34:08;6.30;;;5.90;;
39066;SDS011;24821;51.988;6.020;2023-06-24T01:39:49;8.52;;;7.90;;
39066;SDS011;24821;51.988;6.020;2023-06-24T01:42:21;7.45;;;6.85;;
39066;SDS011;24821;51.988;6.020;2023-06-24T01:44:48;6.80;;;6.45;;
39066;SDS011;24821;51.988;6.020;2023-06-24T01:47:14;8.43;;;7.72;;
39066;SDS011;24821;51.988;6.020;2023-06-24T01:49:44;7.80;;;7.20;;
39066;SDS011;24821;51.988;6.020;2023-06-24T01:52:11;6.55;;;6.15;;
39066;SDS011;24821;51.988;6.020;2023-06-24T01:54:39;6.85;;;6.45;;
39066;SDS011;24821;51.988;6.020;2023-06-24T01:57:07;10.43;;;7.72;;
39066;SDS011;24821;51.988;6.020;2023-06-24T01:59:38;8.82;;;8.02;;
39066;SDS011;24821;51.988;6.020;2023-06-24T02:02:06;7.18;;;6.78;;
39066;SDS011;24821;51.988;6.020;2023-06-24T02:04:33;7.80;;;7.28;;
39066;SDS011;24821;51.988;6.020;2023-06-24T02:07:01;8.43;;;7.65;;
39066;SDS011;24821;51.988;6.020;2023-06-24T02:09:28;7.95;;;7.35;;
39066;SDS011;24821;51.988;6.020;2023-06-24T02:11:59;8.73;;;8.13;;
39066;SDS011;24821;51.988;6.020;2023-06-24T02:14:27;9.88;;;7.93;;
39066;SDS011;24821;51.988;6.020;2023-06-24T02:16:54;7.93;;;7.43;;
39066;SDS011;24821;51.988;6.020;2023-06-24T02:19:24;8.23;;;7.72;;
39066;SDS011;24821;51.988;6.020;2023-06-24T02:21:52;8.05;;;7.47;;
39066;SDS011;24821;51.988;6.020;2023-06-24T02:24:19;7.68;;;7.07;;
39066;SDS011;24821;51.988;6.020;2023-06-24T02:26:45;8.48;;;7.82;;
39066;SDS011;24821;51.988;6.020;2023-06-24T02:29:12;8.18;;;7.47;;
39066;SDS011;24821;51.988;6.020;2023-06-24T02:31:38;7.97;;;7.05;;
39066;SDS011;24821;51.988;6.020;2023-06-24T02:34:04;8.10;;;7.30;;
39066;SDS011;24821;51.988;6.020;2023-06-24T02:36:30;8.25;;;7.65;;
39066;SDS011;24821;51.988;6.020;2023-06-24T02:38:56;8.32;;;7.72;;
39066;SDS011;24821;51.988;6.020;2023-06-24T02:41:21;8.50;;;8.00;;
39066;SDS011;24821;51.988;6.020;2023-06-24T02:43:47;8.27;;;7.72;;
39066;SDS011;24821;51.988;6.020;2023-06-24T02:46:12;9.32;;;8.50;;
39066;SDS011;24821;51.988;6.020;2023-06-24T02:48:40;7.82;;;7.32;;
39066;SDS011;24821;51.988;6.020;2023-06-24T02:51:07;7.43;;;6.93;;
39066;SDS011;24821;51.988;6.020;2023-06-24T02:53:35;7.80;;;7.30;;
39066;SDS011;24821;51.988;6.020;2023-06-24T02:56:03;7.65;;;7.18;;
39066;SDS011;24821;51.988;6.020;2023-06-24T02:58:29;7.85;;;7.30;;
39066;SDS011;24821;51.988;6.020;2023-06-24T03:01:00;7.65;;;7.18;;
39066;SDS011;24821;51.988;6.020;2023-06-24T03:03:28;9.10;;;8.32;;
39066;SDS011;24821;51.988;6.020;2023-06-24T03:05:55;8.38;;;7.68;;
39066;SDS011;24821;51.988;6.020;2023-06-24T03:08:24;8.02;;;7.38;;
39066;SDS011;24821;51.988;6.020;2023-06-24T03:10:52;9.38;;;8.52;;
39066;SDS011;24821;51.988;6.020;2023-06-24T03:13:20;8.82;;;8.23;;
39066;SDS011;24821;51.988;6.020;2023-06-24T03:15:45;9.00;;;8.30;;
39066;SDS011;24821;51.988;6.020;2023-06-24T03:18:11;9.13;;;8.30;;
39066;SDS011;24821;51.988;6.020;2023-06-24T03:20:37;8.38;;;7.68;;
39066;SDS011;24821;51.988;6.020;2023-06-24T03:23:07;9.35;;;8.48;;
39066;SDS011;24821;51.988;6.020;2023-06-24T03:25:33;8.68;;;7.95;;
39066;SDS011;24821;51.988;6.020;2023-06-24T03:27:59;8.95;;;8.15;;
39066;SDS011;24821;51.988;6.020;2023-06-24T03:30:28;7.68;;;6.97;;
39066;SDS011;24821;51.988;6.020;2023-06-24T03:32:54;7.00;;;6.50;;
39066;SDS011;24821;51.988;6.020;2023-06-24T03:35:20;8.13;;;7.38;;
39066;SDS011;24821;51.988;6.020;2023-06-24T03:37:47;6.53;;;5.93;;
39066;SDS011;24821;51.988;6.020;2023-06-24T03:40:13;6.57;;;6.15;;
39066;SDS011;24821;51.988;6.020;2023-06-24T03:42:38;7.90;;;7.20;;
39066;SDS011;24821;51.988;6.020;2023-06-24T03:45:04;7.90;;;7.10;;
39066;SDS011;24821;51.988;6.020;2023-06-24T03:47:30;7.57;;;6.88;;
39066;SDS011;24821;51.988;6.020;2023-06-24T03:49:56;8.25;;;7.03;;
39066;SDS011;24821;51.988;6.020;2023-06-24T03:52:21;7.15;;;6.55;;
39066;SDS011;24821;51.988;6.020;2023-06-24T03:54:47;6.60;;;6.10;;
39066;SDS011;24821;51.988;6.020;2023-06-24T03:57:12;7.63;;;7.03;;
39066;SDS011;24821;51.988;6.020;2023-06-24T03:59:38;6.28;;;5.70;;
39066;SDS011;24821;51.988;6.020;2023-06-24T04:02:04;6.40;;;5.85;;
39066;SDS011;24821;51.988;6.020;2023-06-24T04:04:33;7.68;;;6.57;;
39066;SDS011;24821;51.988;6.020;2023-06-24T04:06:59;6.75;;;6.30;;
39066;SDS011;24821;51.988;6.020;2023-06-24T04:09:24;6.88;;;6.28;;
39066;SDS011;24821;51.988;6.020;2023-06-24T04:11:50;6.53;;;6.03;;
39066;SDS011;24821;51.988;6.020;2023-06-24T04:14:15;7.07;;;6.50;;
39066;SDS011;24821;51.988;6.020;2023-06-24T04:16:41;6.10;;;5.70;;
39066;SDS011;24821;51.988;6.020;2023-06-24T04:19:06;6.75;;;6.18;;
39066;SDS011;24821;51.988;6.020;2023-06-24T04:21:32;6.95;;;6.45;;
39066;SDS011;24821;51.988;6.020;2023-06-24T04:23:57;7.30;;;6.68;;
39066;SDS011;24821;51.988;6.020;2023-06-24T04:26:23;8.50;;;7.65;;
39066;SDS011;24821;51.988;6.020;2023-06-24T04:28:49;7.47;;;6.78;;
39066;SDS011;24821;51.988;6.020;2023-06-24T04:31:14;6.60;;;6.15;;
39066;SDS011;24821;51.988;6.020;2023-06-24T04:33:40;6.43;;;5.93;;
39066;SDS011;24821;51.988;6.020;2023-06-24T04:36:06;6.03;;;5.63;;
39066;SDS011;24821;51.988;6.020;2023-06-24T04:38:31;7.18;;;6.43;;
39066;SDS011;24821;51.988;6.020;2023-06-24T04:40:57;6.72;;;6.07;;
39066;SDS011;24821;51.988;6.020;2023-06-24T04:43:24;6.50;;;5.95;;
39066;SDS011;24821;51.988;6.020;2023-06-24T04:45:50;6.60;;;6.07;;
39066;SDS011;24821;51.988;6.020;2023-06-24T04:48:16;6.13;;;5.68;;
39066;SDS011;24821;51.988;6.020;2023-06-24T04:50:42;6.57;;;6.07;;
39066;SDS011;24821;51.988;6.020;2023-06-24T04:53:07;7.97;;;6.68;;
39066;SDS011;24821;51.988;6.020;2023-06-24T04:55:33;8.13;;;7.35;;
39066;SDS011;24821;51.988;6.020;2023-06-24T04:57:59;7.50;;;6.90;;
39066;SDS011;24821;51.988;6.020;2023-06-24T05:00:24;7.72;;;7.22;;
39066;SDS011;24821;51.988;6.020;2023-06-24T05:02:50;7.75;;;7.15;;
39066;SDS011;24821;51.988;6.020;2023-06-24T05:05:16;7.53;;;5.90;;
39066;SDS011;24821;51.988;6.020;2023-06-24T05:07:41;7.57;;;6.97;;
39066;SDS011;24821;51.988;6.020;2023-06-24T05:10:07;7.20;;;6.60;;
39066;SDS011;24821;51.988;6.020;2023-06-24T05:12:33;6.60;;;6.05;;
39066;SDS011;24821;51.988;6.020;2023-06-24T05:14:58;7.25;;;6.50;;
39066;SDS011;24821;51.988;6.020;2023-06-24T05:17:24;8.38;;;7.60;;
39066;SDS011;24821;51.988;6.020;2023-06-24T05:19:49;10.65;;;7.38;;
39066;SDS011;24821;51.988;6.020;2023-06-24T05:22:16;7.88;;;7.18;;
39066;SDS011;24821;51.988;6.020;2023-06-24T05:24:42;9.45;;;7.63;;
39066;SDS011;24821;51.988;6.020;2023-06-24T05:27:08;7.60;;;6.93;;
39066;SDS011;24821;51.988;6.020;2023-06-24T05:29:34;10.38;;;9.48;;
39066;SDS011;24821;51.988;6.020;2023-06-24T05:32:00;9.35;;;8.43;;
39066;SDS011;24821;51.988;6.020;2023-06-24T05:34:28;10.10;;;9.20;;
39066;SDS011;24821;51.988;6.020;2023-06-24T05:36:54;9.65;;;8.70;;
39066;SDS011;24821;51.988;6.020;2023-06-24T05:39:20;11.50;;;10.43;;
39066;SDS011;24821;51.988;6.020;2023-06-24T05:41:45;11.80;;;10.60;;
39066;SDS011;24821;51.988;6.020;2023-06-24T05:44:13;12.00;;;10.77;;
39066;SDS011;24821;51.988;6.020;2023-06-24T05:46:39;11.60;;;10.00;;
39066;SDS011;24821;51.988;6.020;2023-06-24T05:49:05;11.90;;;11.00;;
39066;SDS011;24821;51.988;6.020;2023-06-24T05:51:30;13.65;;;11.23;;
39066;SDS011;24821;51.988;6.020;2023-06-24T05:53:56;13.90;;;12.52;;
39066;SDS011;24821;51.988;6.020;2023-06-24T05:56:22;12.93;;;11.75;;
39066;SDS011;24821;51.988;6.020;2023-06-24T05:58:48;12.82;;;11.38;;
39066;SDS011;24821;51.988;6.020;2023-06-24T06:01:14;13.25;;;12.07;;
39066;SDS011;24821;51.988;6.020;2023-06-24T06:03:40;13.05;;;11.75;;
39066;SDS011;24821;51.988;6.020;2023-06-24T06:06:05;13.73;;;12.43;;
39066;SDS011;24821;51.988;6.020;2023-06-24T06:08:32;12.05;;;11.32;;
39066;SDS011;24821;51.988;6.020;2023-06-24T06:10:58;12.25;;;11.27;;
39066;SDS011;24821;51.988;6.020;2023-06-24T06:13:25;14.23;;;12.63;;
39066;SDS011;24821;51.988;6.020;2023-06-24T06:15:51;12.48;;;11.38;;
39066;SDS011;24821;51.988;6.020;2023-06-24T06:18:16;7.93;;;5.90;;
39066;SDS011;24821;51.988;6.020;2023-06-24T06:20:42;5.43;;;3.65;;
39066;SDS011;24821;51.988;6.020;2023-06-24T06:23:07;4.32;;;3.42;;
39066;SDS011;24821;51.988;6.020;2023-06-24T06:25:33;11.23;;;3.30;;
39066;SDS011;24821;51.988;6.020;2023-06-24T06:28:00;4.65;;;3.53;;
39066;SDS011;24821;51.988;6.020;2023-06-24T06:30:26;6.20;;;3.17;;
39066;SDS011;24821;51.988;6.020;2023-06-24T06:32:51;5.43;;;2.97;;
39066;SDS011;24821;51.988;6.020;2023-06-24T06:35:17;3.42;;;3.13;;
39066;SDS011;24821;51.988;6.020;2023-06-24T06:37:42;3.15;;;2.85;;
39066;SDS011;24821;51.988;6.020;2023-06-24T06:40:08;2.92;;;2.25;;
39066;SDS011;24821;51.988;6.020;2023-06-24T06:42:34;6.40;;;2.75;;
39066;SDS011;24821;51.988;6.020;2023-06-24T06:44:59;3.33;;;2.22;;
39066;SDS011;24821;51.988;6.020;2023-06-24T06:47:25;3.85;;;2.95;;
39066;SDS011;24821;51.988;6.020;2023-06-24T06:49:50;3.53;;;2.85;;
39066;SDS011;24821;51.988;6.020;2023-06-24T06:52:16;3.47;;;2.85;;
39066;SDS011;24821;51.988;6.020;2023-06-24T06:54:42;3.00;;;2.53;;
39066;SDS011;24821;51.988;6.020;2023-06-24T06:57:07;2.78;;;2.40;;
39066;SDS011;24821;51.988;6.020;2023-06-24T06:59:33;3.33;;;2.53;;
39066;SDS011;24821;51.988;6.020;2023-06-24T07:01:58;4.00;;;3.42;;
39066;SDS011;24821;51.988;6.020;2023-06-24T07:04:24;3.03;;;2.78;;
39066;SDS011;24821;51.988;6.020;2023-06-24T07:06:50;3.67;;;3.38;;
39066;SDS011;24821;51.988;6.020;2023-06-24T07:09:15;5.38;;;3.38;;
39066;SDS011;24821;51.988;6.020;2023-06-24T07:11:42;6.07;;;4.32;;
39066;SDS011;24821;51.988;6.020;2023-06-24T07:14:08;4.53;;;3.58;;
39066;SDS011;24821;51.988;6.020;2023-06-24T07:16:34;4.18;;;3.38;;
39066;SDS011;24821;51.988;6.020;2023-06-24T07:18:59;6.05;;;3.95;;
39066;SDS011;24821;51.988;6.020;2023-06-24T07:21:25;4.93;;;3.40;;
39066;SDS011;24821;51.988;6.020;2023-06-24T07:23:50;7.35;;;3.05;;
39066;SDS011;24821;51.988;6.020;2023-06-24T07:26:16;5.45;;;3.38;;
39066;SDS011;24821;51.988;6.020;2023-06-24T07:28:42;2.88;;;2.58;;
39066;SDS011;24821;51.988;6.020;2023-06-24T07:31:07;3.85;;;3.00;;
39066;SDS011;24821;51.988;6.020;2023-06-24T07:33:33;4.78;;;2.55;;
39066;SDS011;24821;51.988;6.020;2023-06-24T07:35:59;3.40;;;2.35;;
39066;SDS011;24821;51.988;6.020;2023-06-24T07:38:25;2.20;;;1.92;;
39066;SDS011;24821;51.988;6.020;2023-06-24T07:40:51;1.70;;;1.52;;
39066;SDS011;24821;51.988;6.020;2023-06-24T07:43:16;3.15;;;2.67;;
39066;SDS011;24821;51.988;6.020;2023-06-24T07:45:42;1.30;;;1.20;;
39066;SDS011;24821;51.988;6.020;2023-06-24T07:48:08;2.92;;;1.75;;
39066;SDS011;24821;51.988;6.020;2023-06-24T07:50:33;2.33;;;1.95;;
39066;SDS011;24821;51.988;6.020;2023-06-24T07:53:01;3.83;;;2.45;;
39066;SDS011;24821;51.988;6.020;2023-06-24T07:55:27;2.75;;;2.17;;
39066;SDS011;24821;51.988;6.020;2023-06-24T07:57:53;2.63;;;2.28;;
39066;SDS011;24821;51.988;6.020;2023-06-24T08:00:18;2.92;;;2.15;;
39066;SDS011;24821;51.988;6.020;2023-06-24T08:02:44;2.55;;;2.30;;
39066;SDS011;24821;51.988;6.020;2023-06-24T08:05:09;4.28;;;2.72;;
39066;SDS011;24821;51.988;6.020;2023-06-24T08:07:35;2.55;;;2.33;;
39066;SDS011;24821;51.988;6.020;2023-06-24T08:10:02;4.55;;;2.90;;
39066;SDS011;24821;51.988;6.020;2023-06-24T08:12:28;2.85;;;2.08;;
39066;SDS011;24821;51.988;6.020;2023-06-24T08:14:53;2.60;;;2.13;;
39066;SDS011;24821;51.988;6.020;2023-06-24T08:17:19;2.60;;;2.20;;
39066;SDS011;24821;51.988;6.020;2023-06-24T08:19:44;2.83;;;2.38;;
39066;SDS011;24821;51.988;6.020;2023-06-24T08:22:10;1.98;;;1.88;;
39066;SDS011;24821;51.988;6.020;2023-06-24T08:24:36;1.58;;;1.45;;
39066;SDS011;24821;51.988;6.020;2023-06-24T08:27:02;2.92;;;1.58;;
39066;SDS011;24821;51.988;6.020;2023-06-24T08:29:27;1.35;;;1.25;;
39066;SDS011;24821;51.988;6.020;2023-06-24T08:31:53;1.88;;;1.55;;
39066;SDS011;24821;51.988;6.020;2023-06-24T08:34:19;2.60;;;1.90;;
39066;SDS011;24821;51.988;6.020;2023-06-24T08:36:44;1.45;;;1.35;;
39066;SDS011;24821;51.988;6.020;2023-06-24T08:39:10;1.55;;;1.13;;
39066;SDS011;24821;51.988;6.020;2023-06-24T08:41:35;1.10;;;1.05;;
39066;SDS011;24821;51.988;6.020;2023-06-24T08:44:01;1.02;;;1.02;;
39066;SDS011;24821;51.988;6.020;2023-06-24T08:46:27;1.10;;;1.00;;
39066;SDS011;24821;51.988;6.020;2023-06-24T08:48:59;2.45;;;1.40;;
39066;SDS011;24821;51.988;6.020;2023-06-24T08:51:31;1.10;;;0.90;;
39066;SDS011;24821;51.988;6.020;2023-06-24T08:54:00;1.95;;;1.80;;
39066;SDS011;24821;51.988;6.020;2023-06-24T08:56:26;2.47;;;1.48;;
39066;SDS011;24821;51.988;6.020;2023-06-24T08:58:53;4.63;;;1.40;;
39066;SDS011;24821;51.988;6.020;2023-06-24T09:01:18;1.92;;;1.42;;
39066;SDS011;24821;51.988;6.020;2023-06-24T09:03:44;2.63;;;1.40;;
39066;SDS011;24821;51.988;6.020;2023-06-24T09:06:10;1.05;;;0.95;;
39066;SDS011;24821;51.988;6.020;2023-06-24T09:08:35;1.02;;;1.00;;
39066;SDS011;24821;51.988;6.020;2023-06-24T09:11:04;1.92;;;1.50;;
39066;SDS011;24821;51.988;6.020;2023-06-24T09:13:36;2.00;;;1.20;;
39066;SDS011;24821;51.988;6.020;2023-06-24T09:16:10;1.67;;;1.40;;
39066;SDS011;24821;51.988;6.020;2023-06-24T09:18:38;1.95;;;1.25;;
39066;SDS011;24821;51.988;6.020;2023-06-24T09:21:04;1.73;;;1.20;;
39066;SDS011;24821;51.988;6.020;2023-06-24T09:23:29;1.38;;;1.27;;
39066;SDS011;24821;51.988;6.020;2023-06-24T09:26:00;1.85;;;1.45;;
39066;SDS011;24821;51.988;6.020;2023-06-24T09:28:28;0.93;;;0.93;;
39066;SDS011;24821;51.988;6.020;2023-06-24T09:31:06;2.80;;;1.73;;
39066;SDS011;24821;51.988;6.020;2023-06-24T09:33:33;1.70;;;1.15;;
39066;SDS011;24821;51.988;6.020;2023-06-24T09:36:01;3.97;;;1.25;;
39066;SDS011;24821;51.988;6.020;2023-06-24T09:38:34;1.48;;;1.38;;
39066;SDS011;24821;51.988;6.020;2023-06-24T09:41:04;1.50;;;1.10;;
39066;SDS011;24821;51.988;6.020;2023-06-24T09:43:33;4.03;;;1.55;;
39066;SDS011;24821;51.988;6.020;2023-06-24T09:46:01;1.58;;;1.42;;
39066;SDS011;24821;51.988;6.020;2023-06-24T09:48:27;3.55;;;2.13;;
39066;SDS011;24821;51.988;6.020;2023-06-24T09:50:54;3.22;;;1.98;;
39066;SDS011;24821;51.988;6.020;2023-06-24T09:53:24;2.30;;;1.95;;
39066;SDS011;24821;51.988;6.020;2023-06-24T09:55:50;2.40;;;1.65;;
39066;SDS011;24821;51.988;6.020;2023-06-24T09:58:17;1.42;;;1.23;;
39066;SDS011;24821;51.988;6.020;2023-06-24T10:00:44;2.25;;;1.70;;
39066;SDS011;24821;51.988;6.020;2023-06-24T10:03:10;2.38;;;1.65;;
39066;SDS011;24821;51.988;6.020;2023-06-24T10:05:37;2.88;;;2.08;;
39066;SDS011;24821;51.988;6.020;2023-06-24T10:08:04;3.20;;;1.90;;
39066;SDS011;24821;51.988;6.020;2023-06-24T10:10:30;5.90;;;2.20;;
39066;SDS011;24821;51.988;6.020;2023-06-24T10:12:56;1.70;;;1.40;;
39066;SDS011;24821;51.988;6.020;2023-06-24T10:15:22;2.25;;;1.55;;
39066;SDS011;24821;51.988;6.020;2023-06-24T10:17:50;3.00;;;2.22;;
39066;SDS011;24821;51.988;6.020;2023-06-24T10:20:23;2.20;;;1.88;;
39066;SDS011;24821;51.988;6.020;2023-06-24T10:22:51;3.30;;;1.92;;
39066;SDS011;24821;51.988;6.020;2023-06-24T10:25:17;2.17;;;1.83;;
39066;SDS011;24821;51.988;6.020;2023-06-24T10:27:43;1.55;;;1.42;;
39066;SDS011;24821;51.988;6.020;2023-06-24T10:30:16;1.92;;;1.45;;
39066;SDS011;24821;51.988;6.020;2023-06-24T10:32:50;2.42;;;2.00;;
39066;SDS011;24821;51.988;6.020;2023-06-24T10:35:23;3.25;;;2.28;;
39066;SDS011;24821;51.988;6.020;2023-06-24T10:37:54;4.93;;;1.77;;
39066;SDS011;24821;51.988;6.020;2023-06-24T10:40:33;2.47;;;1.75;;
39066;SDS011;24821;51.988;6.020;2023-06-24T10:43:01;2.15;;;1.83;;
39066;SDS011;24821;51.988;6.020;2023-06-24T10:45:26;9.00;;;2.08;;
39066;SDS011;24821;51.988;6.020;2023-06-24T10:47:52;2.15;;;1.70;;
39066;SDS011;24821;51.988;6.020;2023-06-24T10:50:19;1.90;;;1.75;;
39066;SDS011;24821;51.988;6.020;2023-06-24T10:52:46;4.07;;;2.50;;
39066;SDS011;24821;51.988;6.020;2023-06-24T10:55:13;3.40;;;2.20;;
39066;SDS011;24821;51.988;6.020;2023-06-24T10:57:40;3.38;;;2.28;;
39066;SDS011;24821;51.988;6.020;2023-06-24T11:00:06;2.25;;;1.75;;
39066;SDS011;24821;51.988;6.020;2023-06-24T11:02:32;1.98;;;1.83;;
39066;SDS011;24821;51.988;6.020;2023-06-24T11:04:58;1.42;;;1.20;;
39066;SDS011;24821;51.988;6.020;2023-06-24T11:07:25;2.95;;;1.90;;
39066;SDS011;24821;51.988;6.020;2023-06-24T11:09:56;5.13;;;1.60;;
39066;SDS011;24821;51.988;6.020;2023-06-24T11:12:33;3.05;;;1.85;;
39066;SDS011;24821;51.988;6.020;2023-06-24T11:15:03;4.65;;;1.67;;
39066;SDS011;24821;51.988;6.020;2023-06-24T11:17:31;1.95;;;1.67;;
39066;SDS011;24821;51.988;6.020;2023-06-24T11:19:58;1.70;;;1.48;;
39066;SDS011;24821;51.988;6.020;2023-06-24T11:22:24;3.25;;;1.73;;
39066;SDS011;24821;51.988;6.020;2023-06-24T11:24:50;4.60;;;2.08;;
39066;SDS011;24821;51.988;6.020;2023-06-24T11:27:23;2.97;;;1.75;;
39066;SDS011;24821;51.988;6.020;2023-06-24T11:29:51;4.07;;;1.77;;
39066;SDS011;24821;51.988;6.020;2023-06-24T11:32:18;3.25;;;2.30;;
39066;SDS011;24821;51.988;6.020;2023-06-24T11:34:43;1.63;;;1.52;;
39066;SDS011;24821;51.988;6.020;2023-06-24T11:37:12;1.65;;;1.55;;
39066;SDS011;24821;51.988;6.020;2023-06-24T11:42:09;2.97;;;2.40;;
39066;SDS011;24821;51.988;6.020;2023-06-24T11:44:35;1.48;;;1.10;;
39066;SDS011;24821;51.988;6.020;2023-06-24T11:47:07;1.50;;;1.40;;
39066;SDS011;24821;51.988;6.020;2023-06-24T11:49:52;1.75;;;1.30;;
39066;SDS011;24821;51.988;6.020;2023-06-24T11:52:33;2.08;;;1.77;;
39066;SDS011;24821;51.988;6.020;2023-06-24T11:55:26;1.50;;;1.40;;
39066;SDS011;24821;51.988;6.020;2023-06-24T12:00:27;2.13;;;1.77;;
39066;SDS011;24821;51.988;6.020;2023-06-24T12:02:55;3.47;;;1.85;;
39066;SDS011;24821;51.988;6.020;2023-06-24T12:05:31;2.28;;;1.75;;
39066;SDS011;24821;51.988;6.020;2023-06-24T12:07:59;3.00;;;2.03;;
39066;SDS011;24821;51.988;6.020;2023-06-24T12:10:30;3.65;;;2.58;;
39066;SDS011;24821;51.988;6.020;2023-06-24T12:12:58;7.22;;;1.65;;
39066;SDS011;24821;51.988;6.020;2023-06-24T12:15:25;4.43;;;2.55;;
39066;SDS011;24821;51.988;6.020;2023-06-24T12:17:51;2.38;;;1.92;;
39066;SDS011;24821;51.988;6.020;2023-06-24T12:20:17;4.05;;;2.28;;
39066;SDS011;24821;51.988;6.020;2023-06-24T12:22:43;2.20;;;1.85;;
39066;SDS011;24821;51.988;6.020;2023-06-24T12:25:10;2.42;;;1.55;;
39066;SDS011;24821;51.988;6.020;2023-06-24T12:27:36;3.95;;;2.08;;
39066;SDS011;24821;51.988;6.020;2023-06-24T12:30:02;4.03;;;2.10;;
39066;SDS011;24821;51.988;6.020;2023-06-24T12:32:28;2.63;;;2.17;;
39066;SDS011;24821;51.988;6.020;2023-06-24T12:34:54;4.45;;;2.17;;
39066;SDS011;24821;51.988;6.020;2023-06-24T12:37:20;3.10;;;1.92;;
39066;SDS011;24821;51.988;6.020;2023-06-24T12:39:45;2.00;;;1.80;;
39066;SDS011;24821;51.988;6.020;2023-06-24T12:42:12;2.40;;;1.77;;
39066;SDS011;24821;51.988;6.020;2023-06-24T12:44:37;1.90;;;1.80;;
39066;SDS011;24821;51.988;6.020;2023-06-24T12:47:03;1.60;;;1.42;;
39066;SDS011;24821;51.988;6.020;2023-06-24T12:49:29;1.67;;;1.58;;
39066;SDS011;24821;51.988;6.020;2023-06-24T12:51:54;1.80;;;1.70;;
39066;SDS011;24821;51.988;6.020;2023-06-24T12:54:20;3.78;;;2.20;;
39066;SDS011;24821;51.988;6.020;2023-06-24T12:56:45;3.53;;;2.25;;
39066;SDS011;24821;51.988;6.020;2023-06-24T12:59:11;2.08;;;1.88;;
39066;SDS011;24821;51.988;6.020;2023-06-24T13:01:36;2.05;;;1.73;;
39066;SDS011;24821;51.988;6.020;2023-06-24T13:04:02;1.92;;;1.63;;
39066;SDS011;24821;51.988;6.020;2023-06-24T13:06:28;3.15;;;1.58;;
39066;SDS011;24821;51.988;6.020;2023-06-24T13:08:53;2.35;;;1.60;;
39066;SDS011;24821;51.988;6.020;2023-06-24T13:11:19;1.42;;;1.30;;
39066;SDS011;24821;51.988;6.020;2023-06-24T13:13:44;1.55;;;1.45;;
39066;SDS011;24821;51.988;6.020;2023-06-24T13:16:10;2.50;;;1.60;;
39066;SDS011;24821;51.988;6.020;2023-06-24T13:18:35;3.13;;;1.95;;
39066;SDS011;24821;51.988;6.020;2023-06-24T13:21:01;2.00;;;1.80;;
39066;SDS011;24821;51.988;6.020;2023-06-24T13:23:29;2.95;;;1.98;;
39066;SDS011;24821;51.988;6.020;2023-06-24T13:25:55;1.40;;;1.30;;
39066;SDS011;24821;51.988;6.020;2023-06-24T13:28:20;1.63;;;1.52;;
39066;SDS011;24821;51.988;6.020;2023-06-24T13:30:46;1.33;;;1.23;;
39066;SDS011;24821;51.988;6.020;2023-06-24T13:33:12;1.92;;;1.42;;
39066;SDS011;24821;51.988;6.020;2023-06-24T13:35:37;2.10;;;1.40;;
39066;SDS011;24821;51.988;6.020;2023-06-24T13:38:03;2.45;;;1.40;;
39066;SDS011;24821;51.988;6.020;2023-06-24T13:40:28;2.08;;;1.58;;
39066;SDS011;24821;51.988;6.020;2023-06-24T13:42:54;1.70;;;1.60;;
39066;SDS011;24821;51.988;6.020;2023-06-24T13:45:20;2.95;;;1.50;;
39066;SDS011;24821;51.988;6.020;2023-06-24T13:47:45;5.85;;;2.28;;
39066;SDS011;24821;51.988;6.020;2023-06-24T13:50:11;2.72;;;2.50;;
39066;SDS011;24821;51.988;6.020;2023-06-24T13:52:37;1.48;;;1.38;;
39066;SDS011;24821;51.988;6.020;2023-06-24T13:55:02;1.75;;;1.27;;
39066;SDS011;24821;51.988;6.020;2023-06-24T13:57:29;1.50;;;1.40;;
39066;SDS011;24821;51.988;6.020;2023-06-24T13:59:55;4.00;;;1.77;;
39066;SDS011;24821;51.988;6.020;2023-06-24T14:02:21;3.67;;;1.80;;
39066;SDS011;24821;51.988;6.020;2023-06-24T14:04:46;2.63;;;1.60;;
39066;SDS011;24821;51.988;6.020;2023-06-24T14:07:13;2.15;;;1.85;;
39066;SDS011;24821;51.988;6.020;2023-06-24T14:09:38;4.20;;;1.35;;
39066;SDS011;24821;51.988;6.020;2023-06-24T14:12:05;1.05;;;1.05;;
39066;SDS011;24821;51.988;6.020;2023-06-24T14:14:33;1.58;;;1.48;;
39066;SDS011;24821;51.988;6.020;2023-06-24T14:17:01;1.67;;;1.42;;
39066;SDS011;24821;51.988;6.020;2023-06-24T14:19:26;2.85;;;1.75;;
39066;SDS011;24821;51.988;6.020;2023-06-24T14:21:52;1.40;;;1.30;;
39066;SDS011;24821;51.988;6.020;2023-06-24T14:24:17;1.92;;;1.77;;
39066;SDS011;24821;51.988;6.020;2023-06-24T14:26:43;1.75;;;1.65;;
39066;SDS011;24821;51.988;6.020;2023-06-24T14:29:09;1.73;;;1.63;;
39066;SDS011;24821;51.988;6.020;2023-06-24T14:31:35;1.50;;;1.40;;
39066;SDS011;24821;51.988;6.020;2023-06-24T14:34:00;1.85;;;1.60;;
39066;SDS011;24821;51.988;6.020;2023-06-24T14:36:26;1.95;;;1.60;;
39066;SDS011;24821;51.988;6.020;2023-06-24T14:38:51;2.30;;;2.10;;
39066;SDS011;24821;51.988;6.020;2023-06-24T14:41:17;2.45;;;1.42;;
39066;SDS011;24821;51.988;6.020;2023-06-24T14:43:42;1.55;;;1.40;;
39066;SDS011;24821;51.988;6.020;2023-06-24T14:46:08;2.15;;;1.52;;
39066;SDS011;24821;51.988;6.020;2023-06-24T14:48:34;1.73;;;1.55;;
39066;SDS011;24821;51.988;6.020;2023-06-24T14:51:01;2.28;;;1.55;;
39066;SDS011;24821;51.988;6.020;2023-06-24T14:53:26;2.90;;;2.13;;
39066;SDS011;24821;51.988;6.020;2023-06-24T14:55:52;2.13;;;1.65;;
39066;SDS011;24821;51.988;6.020;2023-06-24T14:58:17;2.67;;;2.05;;
39066;SDS011;24821;51.988;6.020;2023-06-24T15:00:43;4.55;;;1.95;;